createdAt,value
2019-01-30T00:02:22.912Z,6.10
2019-01-30T00:04:52.665Z,5.92
2019-01-30T00:07:22.345Z,6.22
2019-01-30T00:09:52.125Z,6.42
2019-01-30T00:12:21.958Z,5.97
2019-01-30T00:14:51.569Z,6.25
2019-01-30T00:17:21.406Z,6.30
2019-01-30T00:19:51.279Z,5.83
2019-01-30T00:22:20.998Z,5.97
2019-01-30T00:24:50.735Z,5.60
2019-01-30T00:27:20.586Z,5.97
2019-01-30T00:29:50.245Z,5.50
2019-01-30T00:32:20.245Z,6.22
2019-01-30T00:34:49.884Z,9.25
2019-01-30T00:37:19.711Z,5.50
2019-01-30T00:39:49.388Z,5.72
2019-01-30T00:42:18.993Z,5.70
2019-01-30T00:44:48.668Z,5.90
2019-01-30T00:47:18.339Z,5.40
2019-01-30T00:49:48.052Z,5.80
2019-01-30T00:52:17.940Z,5.58
2019-01-30T00:54:47.571Z,5.28
2019-01-30T00:57:17.454Z,4.70
2019-01-30T00:59:47.130Z,4.60
2019-01-30T01:02:16.835Z,4.95
2019-01-30T01:04:46.694Z,4.37
2019-01-30T01:07:16.529Z,4.03
2019-01-30T01:09:46.105Z,4.92
2019-01-30T01:12:15.944Z,4.95
2019-01-30T01:14:45.627Z,4.30
2019-01-30T01:17:15.169Z,4.40
2019-01-30T01:19:44.779Z,4.20
2019-01-30T01:22:14.446Z,4.30
2019-01-30T01:24:44.175Z,4.55
2019-01-30T01:27:13.938Z,5.15
2019-01-30T01:29:43.626Z,4.85
2019-01-30T01:32:13.314Z,5.22
2019-01-30T01:34:43.043Z,4.60
2019-01-30T01:37:12.765Z,5.17
2019-01-30T01:39:42.678Z,4.00
2019-01-30T01:42:12.492Z,4.42
2019-01-30T01:44:42.275Z,4.20
2019-01-30T01:47:11.981Z,4.50
2019-01-30T01:49:41.530Z,4.22
2019-01-30T01:52:11.273Z,4.65
2019-01-30T01:54:40.986Z,5.35
2019-01-30T01:57:10.932Z,5.08
2019-01-30T01:59:40.736Z,5.20
2019-01-30T02:02:10.456Z,4.95
2019-01-30T02:04:40.154Z,5.25
2019-01-30T02:07:09.916Z,5.35
2019-01-30T02:09:40.537Z,5.20
2019-01-30T02:12:10.213Z,5.33
2019-01-30T02:14:40.062Z,5.20
2019-01-30T02:17:09.868Z,4.67
2019-01-30T02:19:39.870Z,3.92
2019-01-30T02:22:09.536Z,3.90
2019-01-30T02:24:39.181Z,5.10
2019-01-30T02:27:09.007Z,5.28
2019-01-30T02:29:38.809Z,4.45
2019-01-30T02:32:08.447Z,4.00
2019-01-30T02:34:38.323Z,3.60
2019-01-30T02:37:08.309Z,4.05
2019-01-30T02:39:37.902Z,4.10
2019-01-30T02:42:07.543Z,3.62
2019-01-30T02:44:37.227Z,4.60
2019-01-30T02:47:07.124Z,4.55
2019-01-30T02:49:36.695Z,4.10
2019-01-30T02:52:06.656Z,4.97
2019-01-30T02:54:36.219Z,4.35
2019-01-30T02:57:05.898Z,4.70
2019-01-30T02:59:35.590Z,4.90
2019-01-30T03:02:33.141Z,4.60
2019-01-30T03:05:04.007Z,5.00
2019-01-30T03:07:33.637Z,5.50
2019-01-30T03:10:03.378Z,4.85
2019-01-30T03:12:33.037Z,4.97
2019-01-30T03:15:02.901Z,5.20
2019-01-30T03:17:32.470Z,4.97
2019-01-30T03:20:02.180Z,4.95
2019-01-30T03:22:31.781Z,5.00
2019-01-30T03:25:01.370Z,5.20
2019-01-30T03:27:31.050Z,5.05
2019-01-30T03:30:01.001Z,4.83
2019-01-30T03:32:30.705Z,4.75
2019-01-30T03:35:00.406Z,4.97
2019-01-30T03:37:30.126Z,5.35
2019-01-30T03:39:59.799Z,5.08
2019-01-30T03:42:29.348Z,5.47
2019-01-30T03:44:59.030Z,4.92
2019-01-30T03:47:28.743Z,5.22
2019-01-30T03:49:58.472Z,5.62
2019-01-30T03:52:28.067Z,5.50
2019-01-30T03:54:57.882Z,5.37
2019-01-30T03:57:28.991Z,4.65
2019-01-30T03:59:59.097Z,5.45
2019-01-30T04:02:28.629Z,6.20
2019-01-30T04:04:58.383Z,5.97
2019-01-30T04:07:28.003Z,5.65
2019-01-30T04:09:57.831Z,5.53
2019-01-30T04:12:27.377Z,5.47
2019-01-30T04:14:57.240Z,5.75
2019-01-30T04:17:27.055Z,6.00
2019-01-30T04:19:56.741Z,5.90
2019-01-30T04:22:26.350Z,4.85
2019-01-30T04:24:56.125Z,4.85
2019-01-30T04:27:25.784Z,5.22
2019-01-30T04:29:55.411Z,5.40
2019-01-30T04:32:25.421Z,5.60
2019-01-30T04:34:55.040Z,5.78
2019-01-30T04:37:24.917Z,5.15
2019-01-30T04:39:54.632Z,5.20
2019-01-30T04:42:24.237Z,5.75
2019-01-30T04:44:53.931Z,5.75
2019-01-30T04:47:23.626Z,6.33
2019-01-30T04:49:53.291Z,6.42
2019-01-30T04:52:22.860Z,5.12
2019-01-30T04:54:52.551Z,5.92
2019-01-30T04:57:22.215Z,5.78
2019-01-30T04:59:52.082Z,5.33
2019-01-30T05:02:21.746Z,5.20
2019-01-30T05:04:51.573Z,5.10
2019-01-30T05:07:21.472Z,5.10
2019-01-30T05:09:51.125Z,4.87
2019-01-30T05:12:20.837Z,4.55
2019-01-30T05:14:50.478Z,5.33
2019-01-30T05:17:20.157Z,4.90
2019-01-30T05:19:50.164Z,5.60
2019-01-30T05:22:20.122Z,5.30
2019-01-30T05:24:49.812Z,5.35
2019-01-30T05:27:19.716Z,5.00
2019-01-30T05:29:49.679Z,5.37
2019-01-30T05:32:20.208Z,5.75
2019-01-30T05:34:50.014Z,5.60
2019-01-30T05:37:19.852Z,5.67
2019-01-30T05:39:49.517Z,5.62
2019-01-30T05:42:19.269Z,5.95
2019-01-30T05:44:49.076Z,6.80
2019-01-30T05:47:18.917Z,6.78
2019-01-30T05:49:49.108Z,6.03
2019-01-30T05:52:18.718Z,6.33
2019-01-30T05:54:48.432Z,6.33
2019-01-30T05:57:18.105Z,4.95
2019-01-30T05:59:47.703Z,5.72
2019-01-30T06:02:17.226Z,6.12
2019-01-30T06:04:47.037Z,6.60
2019-01-30T06:07:16.794Z,5.62
2019-01-30T06:09:46.532Z,6.25
2019-01-30T06:12:16.187Z,7.10
2019-01-30T06:14:45.792Z,5.95
2019-01-30T06:17:15.488Z,5.97
2019-01-30T06:19:45.381Z,6.65
2019-01-30T06:22:15.161Z,6.25
2019-01-30T06:24:44.769Z,6.67
2019-01-30T06:27:14.471Z,6.75
2019-01-30T06:29:45.955Z,6.97
2019-01-30T06:32:21.768Z,6.72
2019-01-30T06:34:47.828Z,7.33
2019-01-30T06:37:19.404Z,6.78
2019-01-30T06:39:49.159Z,7.80
2019-01-30T06:42:19.089Z,8.28
2019-01-30T06:44:48.712Z,7.70
2019-01-30T06:47:18.398Z,8.20
2019-01-30T06:49:48.118Z,8.58
2019-01-30T06:52:18.056Z,8.10
2019-01-30T06:54:47.657Z,9.65
2019-01-30T06:57:17.534Z,9.68
2019-01-30T06:59:47.181Z,9.20
2019-01-30T07:02:17.044Z,9.05
2019-01-30T07:04:46.593Z,9.48
2019-01-30T07:07:16.558Z,9.65
2019-01-30T07:09:46.305Z,10.32
2019-01-30T07:12:16.161Z,9.90
2019-01-30T07:14:45.706Z,10.20
2019-01-30T07:17:15.558Z,9.68
2019-01-30T07:19:45.379Z,9.68
2019-01-30T07:22:16.291Z,9.77
2019-01-30T07:24:45.917Z,10.40
2019-01-30T07:27:15.663Z,9.65
2019-01-30T07:29:45.453Z,9.78
2019-01-30T07:32:15.155Z,9.68
2019-01-30T07:34:44.953Z,9.88
2019-01-30T07:37:14.603Z,10.72
2019-01-30T07:39:44.243Z,10.10
2019-01-30T07:42:13.911Z,10.55
2019-01-30T07:44:50.478Z,10.85
2019-01-30T07:47:15.297Z,10.50
2019-01-30T07:49:45.087Z,10.32
2019-01-30T07:52:14.997Z,10.58
2019-01-30T07:54:46.921Z,10.43
2019-01-30T07:57:16.647Z,11.22
2019-01-30T07:59:58.469Z,11.25
2019-01-30T08:02:28.252Z,10.40
2019-01-30T08:04:58.079Z,11.05
2019-01-30T08:07:28.423Z,10.63
2019-01-30T08:09:57.916Z,11.00
2019-01-30T08:12:27.620Z,10.40
2019-01-30T08:14:57.300Z,10.18
2019-01-30T08:17:26.914Z,9.98
2019-01-30T08:19:56.512Z,9.95
2019-01-30T08:22:26.413Z,9.63
2019-01-30T08:24:56.400Z,10.50
2019-01-30T08:27:26.193Z,11.05
2019-01-30T08:29:56.277Z,10.63
2019-01-30T08:32:26.002Z,10.23
2019-01-30T08:34:55.791Z,10.72
2019-01-30T08:37:25.573Z,12.07
2019-01-30T08:39:55.256Z,10.87
2019-01-30T08:42:24.879Z,10.63
2019-01-30T08:44:54.540Z,12.10
2019-01-30T08:47:24.171Z,12.77
2019-01-30T08:49:53.811Z,10.63
2019-01-30T08:52:23.568Z,11.53
2019-01-30T08:54:53.615Z,11.83
2019-01-30T08:57:23.425Z,12.13
2019-01-30T08:59:53.087Z,12.77
2019-01-30T09:02:22.813Z,12.30
2019-01-30T09:04:52.502Z,12.35
2019-01-30T09:07:22.230Z,14.07
2019-01-30T09:09:52.400Z,13.30
2019-01-30T09:12:22.120Z,12.10
2019-01-30T09:14:51.806Z,12.87
2019-01-30T09:17:21.420Z,13.53
2019-01-30T09:19:51.114Z,11.57
2019-01-30T09:22:20.670Z,13.53
2019-01-30T09:24:50.339Z,13.07
2019-01-30T09:27:20.124Z,12.77
2019-01-30T09:29:49.726Z,12.83
2019-01-30T09:32:19.333Z,13.20
2019-01-30T09:34:49.017Z,12.30
2019-01-30T09:37:18.637Z,13.73
2019-01-30T09:39:48.700Z,13.40
2019-01-30T09:42:18.645Z,12.30
2019-01-30T09:44:48.229Z,13.40
2019-01-30T09:47:17.877Z,12.87
2019-01-30T09:49:47.599Z,12.68
2019-01-30T09:52:26.791Z,12.70
2019-01-30T09:54:48.499Z,13.10
2019-01-30T09:57:18.299Z,12.67
2019-01-30T09:59:47.866Z,13.87
2019-01-30T10:02:17.474Z,11.87
2019-01-30T10:04:47.145Z,12.33
2019-01-30T10:07:16.838Z,13.23
2019-01-30T10:09:46.467Z,12.83
2019-01-30T10:12:16.749Z,12.75
2019-01-30T10:14:46.464Z,13.77
2019-01-30T10:17:16.187Z,13.90
2019-01-30T10:19:45.787Z,13.40
2019-01-30T10:22:15.318Z,14.13
2019-01-30T10:24:44.977Z,13.20
2019-01-30T10:27:14.982Z,15.47
2019-01-30T10:29:44.690Z,16.03
2019-01-30T10:32:14.539Z,15.30
2019-01-30T10:34:44.259Z,14.38
2019-01-30T10:37:14.089Z,13.77
2019-01-30T10:39:43.735Z,13.88
2019-01-30T10:42:13.518Z,12.47
2019-01-30T10:44:43.272Z,13.40
2019-01-30T10:47:12.916Z,12.83
2019-01-30T10:49:42.545Z,13.73
2019-01-30T10:52:12.372Z,16.07
2019-01-30T10:54:42.033Z,15.30
2019-01-30T10:57:11.838Z,16.50
2019-01-30T10:59:41.495Z,16.87
2019-01-30T11:02:11.452Z,17.87
2019-01-30T11:04:41.308Z,18.70
2019-01-30T11:07:10.990Z,17.00
2019-01-30T11:09:40.910Z,17.20
2019-01-30T11:12:10.754Z,16.87
2019-01-30T11:14:41.122Z,18.23
2019-01-30T11:17:11.006Z,16.52
2019-01-30T11:19:40.530Z,16.77
2019-01-30T11:22:10.293Z,14.30
2019-01-30T11:24:40.183Z,14.73
2019-01-30T11:27:09.954Z,15.43
2019-01-30T11:29:39.921Z,15.03
2019-01-30T11:32:09.622Z,15.47
2019-01-30T11:34:39.163Z,15.67
2019-01-30T11:37:09.040Z,15.93
2019-01-30T11:39:39.019Z,16.00
2019-01-30T11:42:08.817Z,16.00
2019-01-30T11:44:38.662Z,20.53
2019-01-30T11:47:08.349Z,16.37
2019-01-30T11:49:37.982Z,17.10
2019-01-30T11:52:07.709Z,16.47
2019-01-30T11:54:38.898Z,13.83
2019-01-30T11:57:09.089Z,17.53
2019-01-30T11:59:38.955Z,17.87
2019-01-30T12:02:08.815Z,16.40
2019-01-30T12:04:38.467Z,15.70
2019-01-30T12:07:08.268Z,16.47
2019-01-30T12:09:37.846Z,17.73
2019-01-30T12:12:07.724Z,16.40
2019-01-30T12:14:37.454Z,16.57
2019-01-30T12:17:07.341Z,23.00
2019-01-30T12:19:37.063Z,20.63
2019-01-30T12:22:07.873Z,15.70
2019-01-30T12:24:37.504Z,15.57
2019-01-30T12:27:07.229Z,14.93
2019-01-30T12:29:36.831Z,15.90
2019-01-30T12:32:06.869Z,14.60
2019-01-30T12:34:36.440Z,15.30
2019-01-30T12:37:06.408Z,16.70
2019-01-30T12:39:36.087Z,14.40
2019-01-30T12:42:06.118Z,14.90
2019-01-30T12:44:35.929Z,16.30
2019-01-30T12:47:06.110Z,13.47
2019-01-30T12:49:35.723Z,14.67
2019-01-30T12:52:05.328Z,15.00
2019-01-30T12:54:35.250Z,15.27
2019-01-30T12:57:05.142Z,16.37
2019-01-30T12:59:34.868Z,14.33
2019-01-30T13:02:04.939Z,14.03
2019-01-30T13:04:38.776Z,14.87
2019-01-30T13:07:06.103Z,13.80
2019-01-30T13:09:35.935Z,14.87
2019-01-30T13:12:05.832Z,14.63
2019-01-30T13:14:35.588Z,15.10
2019-01-30T13:17:05.217Z,15.23
2019-01-30T13:19:34.859Z,14.27
2019-01-30T13:22:04.734Z,15.80
2019-01-30T13:24:34.323Z,15.68
2019-01-30T13:27:04.200Z,25.27
2019-01-30T13:29:33.975Z,14.60
2019-01-30T13:32:03.766Z,16.30
2019-01-30T13:34:33.648Z,14.80
2019-01-30T13:37:03.728Z,16.10
2019-01-30T13:39:33.374Z,16.40
2019-01-30T13:42:03.164Z,16.30
2019-01-30T13:44:32.937Z,16.50
2019-01-30T13:47:02.750Z,16.27
2019-01-30T13:49:32.753Z,15.77
2019-01-30T13:52:03.504Z,17.77
2019-01-30T13:54:33.233Z,16.13
2019-01-30T13:57:02.973Z,16.00
2019-01-30T13:59:32.643Z,17.17
2019-01-30T14:02:02.347Z,16.20
2019-01-30T14:04:32.167Z,16.83
2019-01-30T14:07:02.026Z,16.57
2019-01-30T14:09:31.595Z,16.63
2019-01-30T14:12:01.276Z,15.07
2019-01-30T14:14:30.970Z,23.23
2019-01-30T14:17:00.662Z,16.85
2019-01-30T14:19:30.478Z,17.17
2019-01-30T14:22:00.228Z,18.43
2019-01-30T14:24:29.916Z,18.33
2019-01-30T14:26:59.547Z,19.07
2019-01-30T14:29:29.351Z,17.87
2019-01-30T14:31:59.035Z,19.37
2019-01-30T14:34:28.760Z,17.90
2019-01-30T14:36:58.372Z,17.07
2019-01-30T14:39:28.039Z,17.00
2019-01-30T14:41:57.872Z,17.30
2019-01-30T14:44:27.629Z,14.73
2019-01-30T14:46:57.179Z,16.20
2019-01-30T14:49:27.111Z,16.47
2019-01-30T14:51:57.109Z,15.03
2019-01-30T14:54:26.738Z,16.17
2019-01-30T14:56:56.547Z,17.93
2019-01-30T14:59:26.243Z,18.00
2019-01-30T15:01:55.948Z,18.40
2019-01-30T15:04:25.668Z,17.00
2019-01-30T15:06:55.756Z,17.13
2019-01-30T15:09:25.942Z,17.80
2019-01-30T15:11:55.729Z,17.47
2019-01-30T15:14:25.391Z,18.53
2019-01-30T15:16:54.980Z,18.77
2019-01-30T15:19:24.924Z,17.90
2019-01-30T15:21:56.860Z,17.35
2019-01-30T15:24:26.035Z,17.05
2019-01-30T15:26:55.836Z,17.87
2019-01-30T15:29:25.650Z,17.03
2019-01-30T15:31:55.445Z,17.27
2019-01-30T15:34:25.212Z,21.80
2019-01-30T15:36:54.908Z,17.77
2019-01-30T15:39:24.688Z,16.77
2019-01-30T15:41:54.431Z,16.50
2019-01-30T15:44:24.167Z,17.63
2019-01-30T15:46:53.828Z,17.50
2019-01-30T15:49:23.541Z,17.25
2019-01-30T15:51:53.148Z,18.23
2019-01-30T15:54:22.809Z,17.10
2019-01-30T15:56:52.554Z,17.85
2019-01-30T15:59:22.293Z,17.77
2019-01-30T16:01:52.129Z,17.50
2019-01-30T16:04:21.734Z,16.93
2019-01-30T16:06:51.501Z,17.03
2019-01-30T16:09:21.358Z,17.73
2019-01-30T16:11:50.940Z,18.63
2019-01-30T16:14:21.215Z,18.03
2019-01-30T16:16:51.087Z,17.90
2019-01-30T16:19:21.714Z,16.70
2019-01-30T16:21:52.790Z,16.93
2019-01-30T16:24:22.384Z,17.87
2019-01-30T16:26:52.198Z,17.33
2019-01-30T16:29:21.857Z,17.17
2019-01-30T16:31:51.438Z,16.00
2019-01-30T16:34:21.073Z,17.52
2019-01-30T16:36:50.851Z,17.00
2019-01-30T16:39:20.650Z,16.57
2019-01-30T16:41:50.348Z,16.27
2019-01-30T16:44:20.695Z,17.25
2019-01-30T16:46:50.259Z,17.00
2019-01-30T16:49:20.161Z,17.92
2019-01-30T16:51:50.236Z,18.27
2019-01-30T16:54:20.097Z,18.05
2019-01-30T16:56:49.867Z,17.42
2019-01-30T16:59:19.912Z,17.20
2019-01-30T17:01:49.523Z,16.85
2019-01-30T17:04:20.957Z,18.45
2019-01-30T17:06:50.765Z,16.37
2019-01-30T17:09:21.212Z,18.35
2019-01-30T17:11:50.901Z,15.72
2019-01-30T17:14:21.057Z,16.77
2019-01-30T17:16:50.642Z,15.80
2019-01-30T17:19:20.231Z,16.15
2019-01-30T17:21:50.130Z,16.23
2019-01-30T17:24:19.819Z,16.73
2019-01-30T17:26:49.581Z,16.13
2019-01-30T17:29:19.382Z,16.42
2019-01-30T17:31:49.045Z,17.57
2019-01-30T17:34:18.836Z,16.30
2019-01-30T17:36:48.467Z,16.47
2019-01-30T17:39:18.162Z,14.68
2019-01-30T17:41:47.834Z,17.40
2019-01-30T17:44:17.464Z,15.40
2019-01-30T17:46:47.288Z,14.03
2019-01-30T17:49:19.131Z,15.23
2019-01-30T17:51:49.875Z,14.78
2019-01-30T17:54:22.671Z,14.65
2019-01-30T17:56:52.607Z,14.03
2019-01-30T17:59:24.542Z,14.90
2019-01-30T18:01:55.893Z,13.60
2019-01-30T18:04:28.186Z,14.73
2019-01-30T18:06:57.822Z,13.48
2019-01-30T18:09:27.787Z,13.43
2019-01-30T18:11:58.125Z,12.35
2019-01-30T18:14:30.345Z,16.95
2019-01-30T18:17:01.609Z,15.38
2019-01-30T18:19:33.052Z,13.40
2019-01-30T18:22:10.098Z,10.93
2019-01-30T18:24:41.907Z,13.30
2019-01-30T18:27:19.155Z,12.73
2019-01-30T18:29:49.960Z,13.03
2019-01-30T18:32:19.922Z,13.15
2019-01-30T18:34:49.768Z,11.93
2019-01-30T18:37:19.547Z,9.13
2019-01-30T18:39:49.770Z,11.18
2019-01-30T18:42:23.304Z,10.72
2019-01-30T18:44:53.589Z,12.63
2019-01-30T18:47:23.640Z,12.25
2019-01-30T18:49:58.143Z,11.60
2019-01-30T18:52:28.487Z,12.50
2019-01-30T18:54:58.517Z,10.13
2019-01-30T18:57:34.859Z,11.75
2019-01-30T19:00:06.138Z,11.33
2019-01-30T19:02:36.096Z,12.58
2019-01-30T19:05:06.977Z,12.18
2019-01-30T19:07:37.205Z,10.25
2019-01-30T19:10:09.666Z,8.60
2019-01-30T19:12:39.793Z,10.05
2019-01-30T19:15:13.356Z,10.65
2019-01-30T19:17:43.047Z,11.25
2019-01-30T19:20:16.237Z,11.73
2019-01-30T19:22:46.708Z,11.22
2019-01-30T19:25:16.649Z,9.60
2019-01-30T19:27:46.940Z,10.50
2019-01-30T19:30:19.692Z,9.48
2019-01-30T19:32:49.439Z,10.80
2019-01-30T19:35:19.898Z,9.23
2019-01-30T19:37:49.723Z,8.70
2019-01-30T19:40:19.569Z,9.80
2019-01-30T19:42:49.330Z,7.92
2019-01-30T19:45:20.398Z,7.53
2019-01-30T19:47:58.070Z,7.70
2019-01-30T19:50:30.215Z,8.88
2019-01-30T19:53:00.909Z,10.53
2019-01-30T19:55:31.463Z,7.58
2019-01-30T19:58:01.239Z,10.63
2019-01-30T20:00:41.272Z,10.78
2019-01-30T20:03:17.694Z,10.20
2019-01-30T20:05:49.034Z,10.65
2019-01-30T20:08:19.179Z,8.75
2019-01-30T20:10:49.284Z,11.25
2019-01-30T20:13:19.416Z,12.45
2019-01-30T20:15:49.537Z,8.38
2019-01-30T20:18:19.134Z,10.25
2019-01-30T20:20:49.110Z,10.80
2019-01-30T20:23:21.993Z,10.95
2019-01-30T20:25:51.890Z,6.25
2019-01-30T20:28:21.555Z,3.60
2019-01-30T20:30:51.400Z,9.95
2019-01-30T20:33:21.358Z,10.70
2019-01-30T20:35:51.460Z,10.23
2019-01-30T20:38:21.429Z,6.03
2019-01-30T20:40:51.199Z,9.25
2019-01-30T20:43:21.271Z,7.78
2019-01-30T20:45:51.325Z,8.00
2019-01-30T20:48:20.940Z,9.40
2019-01-30T20:50:50.593Z,9.98
2019-01-30T20:53:20.340Z,7.28
2019-01-30T20:55:50.207Z,9.63
2019-01-30T20:58:19.996Z,10.68
2019-01-30T21:00:49.952Z,9.93
2019-01-30T21:03:19.811Z,11.60
2019-01-30T21:05:49.692Z,11.20
2019-01-30T21:08:19.595Z,10.68
2019-01-30T21:10:49.482Z,8.88
2019-01-30T21:13:19.346Z,10.25
2019-01-30T21:15:49.277Z,9.65
2019-01-30T21:18:19.093Z,10.00
2019-01-30T21:20:48.840Z,8.98
2019-01-30T21:23:18.902Z,9.30
2019-01-30T21:25:50.022Z,10.13
2019-01-30T21:28:20.053Z,10.10
2019-01-30T21:30:49.839Z,10.23
2019-01-30T21:33:26.663Z,9.48
2019-01-30T21:35:55.334Z,10.35
2019-01-30T21:38:25.412Z,8.60
2019-01-30T21:40:55.123Z,9.80
2019-01-30T21:43:25.363Z,9.65
2019-01-30T21:45:55.440Z,9.55
2019-01-30T21:48:25.380Z,8.83
2019-01-30T21:50:55.122Z,9.25
2019-01-30T21:53:25.306Z,8.93
2019-01-30T21:55:54.974Z,9.95
2019-01-30T21:58:24.920Z,9.83
2019-01-30T22:00:54.831Z,9.05
2019-01-30T22:03:24.874Z,10.23
2019-01-30T22:05:54.659Z,10.08
2019-01-30T22:08:24.456Z,7.97
2019-01-30T22:10:54.230Z,8.75
2019-01-30T22:13:24.494Z,9.58
2019-01-30T22:15:54.292Z,9.38
2019-01-30T22:18:24.121Z,9.53
2019-01-30T22:20:53.672Z,9.35
2019-01-30T22:23:23.386Z,8.45
2019-01-30T22:25:53.096Z,8.63
2019-01-30T22:28:22.828Z,8.60
2019-01-30T22:30:52.803Z,8.18
2019-01-30T22:33:22.534Z,9.10
2019-01-30T22:35:52.226Z,10.03
2019-01-30T22:38:21.911Z,9.00
2019-01-30T22:40:51.523Z,9.30
2019-01-30T22:43:21.388Z,9.65
2019-01-30T22:45:51.092Z,8.73
2019-01-30T22:48:20.795Z,7.77
2019-01-30T22:50:50.437Z,7.80
2019-01-30T22:53:21.379Z,7.53
2019-01-30T22:55:51.062Z,9.23
2019-01-30T22:58:20.653Z,8.95
2019-01-30T23:01:27.330Z,8.83
2019-01-30T23:04:27.623Z,8.18
2019-01-30T23:07:24.100Z,7.42
2019-01-30T23:10:37.349Z,7.42
2019-01-30T23:13:36.709Z,8.13
2019-01-30T23:16:42.901Z,7.12
2019-01-30T23:19:42.733Z,7.80
2019-01-30T23:23:20.662Z,7.10
2019-01-30T23:26:26.757Z,7.30
2019-01-30T23:29:31.012Z,4.67
2019-01-30T23:32:27.161Z,5.80
2019-01-30T23:35:37.703Z,4.60
2019-01-30T23:38:34.025Z,5.70
2019-01-30T23:41:41.388Z,5.75
2019-01-30T23:44:57.570Z,6.00
2019-01-30T23:47:53.698Z,5.65
2019-01-30T23:50:57.043Z,2.87
2019-01-30T23:54:13.426Z,6.45
2019-01-30T23:57:24.291Z,6.70
